Time;durP1;ratioP1;P1;durP2;ratioP2;P2;SDS_P1;SDS_P2;PMS_P1;PMS_P2;Temp;Humidity;BMP_temperature;BMP_pressure;BME280_temperature;BME280_humidity;BME280_pressure;Samples;Min_cycle;Max_cycle;Signal;HPM_P1;HPM_P2
2021/04/16 03:01:26;;;;;;;14.78;8.90;;;;;;;5.79;100.00;100349.78;1755975;77;21109;-69
2021/04/16 03:03:55;;;;;;;12.00;8.78;;;;;;;5.80;100.00;100350.95;1686740;83;21973;-73
2021/04/16 03:06:24;;;;;;;15.95;9.10;;;;;;;5.82;100.00;100350.78;1710832;81;20963;-73
2021/04/16 03:08:55;;;;;;;11.88;8.90;;;;;;;5.85;100.00;100357.77;1708480;82;21203;-71
2021/04/16 03:11:26;;;;;;;12.82;8.85;;;;;;;5.89;100.00;100362.16;1709529;81;21532;-72
2021/04/16 03:13:56;;;;;;;12.07;9.15;;;;;;;5.93;100.00;100359.63;1702209;82;21167;-72
2021/04/16 03:16:27;;;;;;;13.18;8.65;;;;;;;5.97;100.00;100360.95;1683010;83;21176;-72
2021/04/16 03:18:58;;;;;;;11.57;9.05;;;;;;;6.01;100.00;100365.34;1683838;83;20936;-68
2021/04/16 03:21:27;;;;;;;13.15;9.03;;;;;;;6.02;100.00;100365.22;1697220;82;21961;-72
2021/04/16 03:23:55;;;;;;;11.22;9.18;;;;;;;6.06;100.00;100364.41;1704609;82;21108;-71
2021/04/16 03:26:24;;;;;;;10.93;8.18;;;;;;;6.09;100.00;100366.20;1705053;81;21484;-73
2021/04/16 03:28:55;;;;;;;12.53;8.68;;;;;;;6.14;100.00;100361.06;1703301;82;21124;-72
2021/04/16 03:31:24;;;;;;;10.70;8.95;;;;;;;6.19;100.00;100373.09;1678140;83;21202;-74
2021/04/16 03:33:54;;;;;;;10.58;7.95;;;;;;;6.24;100.00;100369.55;1676104;84;21176;-74
2021/04/16 03:36:23;;;;;;;12.10;7.87;;;;;;;6.28;100.00;100368.28;1711353;82;21182;-74
2021/04/16 03:38:52;;;;;;;13.88;9.13;;;;;;;6.33;100.00;100377.23;1673620;84;21615;-68
2021/04/16 03:41:20;;;;;;;12.20;8.85;;;;;;;6.40;100.00;100372.72;1699328;81;21566;-74
2021/04/16 03:43:49;;;;;;;12.40;8.63;;;;;;;6.47;100.00;100374.55;1705064;82;21154;-74
2021/04/16 03:46:17;;;;;;;11.12;8.25;;;;;;;6.56;100.00;100378.81;1670291;85;21215;-73
2021/04/16 03:48:46;;;;;;;12.33;8.75;;;;;;;6.69;100.00;100380.16;1703030;81;21482;-72
2021/04/16 03:51:16;;;;;;;10.23;7.65;;;;;;;6.96;100.00;100378.66;1690977;83;21218;-73
2021/04/16 03:53:44;;;;;;;10.85;8.03;;;;;;;7.65;100.00;100379.33;1701170;81;21138;-73
2021/04/16 03:56:13;;;;;;;10.50;7.20;;;;;;;8.56;100.00;100376.17;1684281;83;21179;-72
2021/04/16 03:58:43;;;;;;;9.37;7.07;;;;;;;9.78;100.00;100374.74;1666985;83;21329;-70
2021/04/16 04:01:12;;;;;;;10.47;7.87;;;;;;;11.68;100.00;100353.13;1713792;82;21468;-73
2021/04/16 04:03:40;;;;;;;8.60;7.10;;;;;;;11.68;100.00;100353.13;1689882;82;21641;-74
2021/04/16 04:06:09;;;;;;;10.30;7.83;;;;;;;12.15;100.00;100349.09;1711065;82;21868;-74
2021/04/16 04:08:37;;;;;;;12.40;7.47;;;;;;;12.32;100.00;100353.04;1673501;84;21830;-74
2021/04/16 04:11:07;;;;;;;11.00;8.60;;;;;;;12.51;100.00;100343.69;1643263;86;21248;-71
2021/04/16 04:13:35;;;;;;;10.23;7.37;;;;;;;12.88;100.00;100339.84;1711608;82;20967;-73
2021/04/16 04:16:06;;;;;;;9.63;7.00;;;;;;;13.58;100.00;100343.03;1709519;82;21091;-69
2021/04/16 04:18:35;;;;;;;7.70;6.50;;;;;;;14.15;100.00;100343.41;1670872;84;20955;-75
2021/04/16 04:21:04;;;;;;;10.43;7.23;;;;;;;14.60;100.00;100344.34;1711695;82;21178;-72
2021/04/16 04:23:34;;;;;;;10.15;6.92;;;;;;;14.86;100.00;100343.16;1678768;84;20908;-74
2021/04/16 04:26:03;;;;;;;10.33;7.17;;;;;;;15.16;100.00;100339.47;1679210;84;21612;-71
2021/04/16 04:28:32;;;;;;;8.50;6.90;;;;;;;15.44;100.00;100345.13;1716165;81;21030;-74
2021/04/16 04:31:00;;;;;;;7.77;6.90;;;;;;;15.45;100.00;100351.98;1678584;84;21168;-72
2021/04/16 04:33:30;;;;;;;7.23;6.50;;;;;;;15.59;100.00;100348.77;1709616;82;21161;-73
2021/04/16 04:35:59;;;;;;;7.77;6.40;;;;;;;15.85;100.00;100346.48;1711988;82;21210;-69
2021/04/16 04:38:28;;;;;;;8.43;6.73;;;;;;;15.96;100.00;100343.66;1667187;83;21023;-72
2021/04/16 04:40:56;;;;;;;8.90;6.43;;;;;;;16.18;100.00;100344.87;1710886;82;21117;-71
2021/04/16 04:43:24;;;;;;;8.80;7.03;;;;;;;16.24;100.00;100345.30;1708924;82;21235;-72
2021/04/16 04:45:53;;;;;;;8.27;6.17;;;;;;;16.11;100.00;100351.21;1712398;82;21512;-73
2021/04/16 04:48:22;;;;;;;8.20;6.90;;;;;;;16.14;100.00;100359.47;1710254;82;21189;-73
2021/04/16 04:50:50;;;;;;;9.83;7.50;;;;;;;15.75;100.00;100356.14;1709568;82;21186;-74
2021/04/16 04:53:19;;;;;;;7.40;6.30;;;;;;;15.30;100.00;100368.07;1711229;82;21220;-72
2021/04/16 04:55:47;;;;;;;7.13;5.63;;;;;;;14.79;100.00;100364.97;1709924;82;21095;-73
2021/04/16 04:58:16;;;;;;;9.13;7.13;;;;;;;14.10;100.00;100368.13;1713837;82;21644;-72
2021/04/16 05:00:44;;;;;;;9.83;7.10;;;;;;;13.39;100.00;100366.88;1709323;82;21363;-74
2021/04/16 05:03:13;;;;;;;7.93;6.70;;;;;;;12.85;100.00;100370.81;1726912;80;21167;-74
2021/04/16 05:05:41;;;;;;;8.60;6.50;;;;;;;12.56;100.00;100366.14;1731163;80;21146;-72
2021/04/16 05:08:10;;;;;;;9.37;6.30;;;;;;;12.50;100.00;100362.17;1736132;80;21049;-68
2021/04/16 05:10:39;;;;;;;7.87;6.07;;;;;;;12.72;100.00;100366.31;1736131;80;21207;-69
2021/04/16 05:13:09;;;;;;;6.50;5.47;;;;;;;13.44;100.00;100358.41;1748888;80;21100;-70
2021/04/16 05:15:38;;;;;;;6.83;5.07;;;;;;;14.43;100.00;100350.20;1728040;80;21049;-69
2021/04/16 05:18:07;;;;;;;8.03;5.47;;;;;;;15.51;100.00;100351.66;1741900;80;21483;-69
2021/04/16 05:20:35;;;;;;;6.50;5.10;;;;;;;16.40;100.00;100348.38;1730611;80;21132;-71
2021/04/16 05:23:04;;;;;;;5.13;4.30;;;;;;;17.24;98.74;100343.62;1732987;80;21069;-68
2021/04/16 05:25:32;;;;;;;4.97;4.47;;;;;;;17.80;78.93;100351.31;1731859;80;21263;-69
2021/04/16 05:28:01;;;;;;;5.67;4.43;;;;;;;17.92;72.54;100348.19;1734875;80;21172;-66
2021/04/16 05:30:29;;;;;;;4.17;3.27;;;;;;;18.01;71.69;100354.71;1727690;82;21721;-69
2021/04/16 05:32:59;;;;;;;4.50;3.80;;;;;;;17.82;67.75;100351.38;1740331;80;21414;-69
2021/04/16 05:35:28;;;;;;;5.57;3.70;;;;;;;17.82;69.47;100347.42;1734284;80;21670;-68
2021/04/16 05:37:57;;;;;;;5.13;3.73;;;;;;;18.06;66.42;100354.81;1739309;80;22004;-69
2021/04/16 05:40:27;;;;;;;5.33;3.70;;;;;;;18.11;64.17;100349.67;1740585;80;21582;-69
2021/04/16 05:42:55;;;;;;;4.50;3.80;;;;;;;18.17;63.46;100350.05;1733587;80;21618;-69
2021/04/16 05:45:23;;;;;;;4.43;3.63;;;;;;;18.24;59.73;100354.70;1733665;80;21125;-70
2021/04/16 05:47:52;;;;;;;4.30;3.70;;;;;;;17.94;59.93;100352.70;1729668;80;21101;-70
2021/04/16 05:50:20;;;;;;;4.37;3.77;;;;;;;17.32;62.60;100357.51;1740241;80;22597;-69
2021/04/16 05:52:49;;;;;;;4.97;4.43;;;;;;;16.59;68.53;100360.50;1736107;80;21172;-69
2021/04/16 05:55:18;;;;;;;4.90;4.07;;;;;;;16.00;75.09;100366.67;1741860;80;21653;-69
2021/04/16 05:57:47;;;;;;;5.20;4.17;;;;;;;15.39;80.75;100377.81;1732185;80;21929;-68
2021/04/16 06:00:17;;;;;;;6.50;4.53;;;;;;;14.71;91.23;100380.95;1735798;80;21204;-67
2021/04/16 06:02:45;;;;;;;5.07;4.10;;;;;;;14.09;98.58;100388.78;1729786;80;22080;-69
2021/04/16 06:05:17;;;;;;;5.40;4.60;;;;;;;13.53;100.00;100387.86;1708611;80;21101;-68
2021/04/16 06:07:46;;;;;;;5.78;4.70;;;;;;;13.07;100.00;100389.83;1696215;82;20967;-71
2021/04/16 06:10:16;;;;;;;6.50;4.93;;;;;;;12.63;100.00;100392.33;1695217;82;21065;-74
2021/04/16 06:12:44;;;;;;;8.50;5.37;;;;;;;12.23;100.00;100395.98;1708940;82;21117;-71
2021/04/16 06:15:16;;;;;;;6.57;4.97;;;;;;;11.90;100.00;100393.13;1693932;83;21200;-69
2021/04/16 06:17:45;;;;;;;5.10;4.27;;;;;;;11.58;100.00;100395.20;1702764;82;21010;-68
2021/04/16 06:20:15;;;;;;;6.93;5.33;;;;;;;11.47;100.00;100398.80;1709031;82;21433;-69
2021/04/16 06:22:45;;;;;;;5.40;4.63;;;;;;;11.47;100.00;100389.67;1663779;83;21029;-72
2021/04/16 06:25:14;;;;;;;6.10;5.40;;;;;;;11.54;100.00;100397.08;1700663;82;21128;-72
2021/04/16 06:27:43;;;;;;;6.00;5.40;;;;;;;11.69;100.00;100399.13;1699836;82;21270;-72
2021/04/16 06:30:12;;;;;;;5.93;5.23;;;;;;;11.81;100.00;100395.52;1697818;82;21223;-69
2021/04/16 06:32:40;;;;;;;6.57;5.27;;;;;;;11.89;100.00;100397.55;1692501;82;21185;-69
2021/04/16 06:35:12;;;;;;;7.00;5.27;;;;;;;11.98;100.00;100397.42;1689811;82;21622;-69
2021/04/16 06:37:41;;;;;;;6.63;4.80;;;;;;;12.04;100.00;100400.56;1684798;82;21150;-70
2021/04/16 06:40:32;;;;;;;8.43;5.87;;;;;;;12.16;100.00;100405.61;1690967;82;21588;-69
2021/04/16 06:43:00;;;;;;;6.67;4.83;;;;;;;12.23;100.00;100401.72;1729253;81;21157;-69
2021/04/16 06:45:31;;;;;;;7.00;5.27;;;;;;;12.28;100.00;100406.70;1705114;82;21079;-68
2021/04/16 06:48:05;;;;;;;;;;;;;;;12.24;100.00;100410.69;1712704;81;21158;-69
2021/04/16 06:50:37;;;;;;;4.67;3.70;;;;;;;12.41;100.00;100412.00;1713536;81;20567;-69
2021/04/16 06:53:30;;;;;;;5.60;3.93;;;;;;;12.85;100.00;100416.59;1711313;82;21402;-69
2021/04/16 06:56:09;;;;;;;4.83;3.20;;;;;;;13.39;100.00;100407.46;1710391;81;21228;-68
2021/04/16 06:58:59;;;;;;;4.27;3.00;;;;;;;13.77;100.00;100414.78;1716315;81;21260;-68
2021/04/16 07:01:47;;;;;;;4.30;3.03;;;;;;;13.74;100.00;100416.48;1709612;82;21193;-68
2021/04/16 07:04:38;;;;;;;4.97;3.23;;;;;;;13.63;100.00;100413.14;1713243;81;21264;-70
2021/04/16 07:07:16;;;;;;;4.72;3.47;;;;;;;13.43;100.00;100418.85;1737279;80;24410;-70
2021/04/16 07:10:21;;;;;;;5.10;3.93;;;;;;;13.19;100.00;100417.05;1813775;78;21543;-68
2021/04/16 07:12:52;;;;;;;4.43;3.40;;;;;;;13.02;100.00;100424.41;1789216;79;20915;-69
2021/04/16 07:15:40;;;;;;;4.87;3.30;;;;;;;12.81;100.00;100422.71;1781995;77;21257;-69
2021/04/16 07:18:14;;;;;;;4.07;3.23;;;;;;;12.60;100.00;100431.43;1788273;79;20904;-69
2021/04/16 07:20:43;;;;;;;5.03;3.90;;;;;;;12.42;100.00;100436.33;1781226;77;21101;-68
2021/04/16 07:23:11;;;;;;;8.10;4.90;;;;;;;12.28;100.00;100438.06;1783531;77;20998;-69
2021/04/16 07:25:54;;;;;;;6.60;5.13;;;;;;;12.11;100.00;100436.20;1782549;79;21089;-69
2021/04/16 07:28:45;;;;;;;6.27;4.50;;;;;;;12.08;100.00;100439.19;1787589;79;21346;-69
2021/04/16 07:31:47;;;;;;;6.17;4.70;;;;;;;12.30;100.00;100434.74;1781473;79;21050;-68
2021/04/16 07:34:30;;;;;;;9.67;6.37;;;;;;;12.68;100.00;100435.70;1778657;79;20919;-68
2021/04/16 07:37:11;;;;;;;7.90;5.10;;;;;;;13.21;100.00;100426.80;1783846;79;21153;-69
2021/04/16 07:39:47;;;;;;;7.77;5.87;;;;;;;13.76;100.00;100424.97;1782267;77;21153;-69
2021/04/16 07:42:22;;;;;;;8.97;5.40;;;;;;;14.22;100.00;100421.56;1780211;77;21178;-70
2021/04/16 07:45:11;;;;;;;6.80;4.40;;;;;;;14.53;100.00;100426.19;1769950;79;20955;-68
2021/04/16 07:47:39;;;;;;;6.70;4.47;;;;;;;14.89;100.00;100420.13;1797608;77;21611;-69
2021/04/16 07:50:32;;;;;;;5.23;3.90;;;;;;;15.32;95.97;100430.37;1782267;79;20915;-69
2021/04/16 07:53:01;;;;;;;6.70;4.60;;;;;;;15.39;92.02;100421.66;1792190;79;20966;-69
2021/04/16 07:55:31;;;;;;;6.27;4.20;;;;;;;15.16;86.36;100424.80;1776965;79;21550;-69
2021/04/16 07:58:18;;;;;;;6.40;4.93;;;;;;;14.73;90.45;100424.83;1777700;79;20911;-68
2021/04/16 08:00:46;;;;;;;7.97;5.40;;;;;;;14.37;96.51;100430.52;1775181;79;20986;-69
2021/04/16 08:03:21;;;;;;;6.23;5.53;;;;;;;14.06;100.00;100429.84;1776580;79;21531;-68
2021/04/16 08:05:55;;;;;;;8.90;6.17;;;;;;;13.88;100.00;100428.61;1777320;79;21469;-68
2021/04/16 08:08:32;;;;;;;9.40;5.80;;;;;;;13.85;100.00;100426.38;1783044;79;21194;-68
2021/04/16 08:11:09;;;;;;;7.40;5.80;;;;;;;14.00;100.00;100430.63;1784009;79;20986;-67
2021/04/16 08:13:51;;;;;;;5.20;4.20;;;;;;;14.15;100.00;100431.23;1786396;79;20927;-68
2021/04/16 08:16:27;;;;;;;6.70;5.13;;;;;;;14.17;100.00;100430.55;1752262;80;20974;-65
2021/04/16 08:19:20;;;;;;;5.90;4.30;;;;;;;14.05;100.00;100434.75;1789792;79;21058;-66
2021/04/16 08:21:58;;;;;;;5.17;4.20;;;;;;;13.93;100.00;100429.30;1735704;80;20926;-66
2021/04/16 08:24:54;;;;;;;5.67;4.40;;;;;;;13.86;100.00;100438.50;1724469;82;21523;-65
2021/04/16 08:27:40;;;;;;;6.47;4.33;;;;;;;13.84;100.00;100428.70;1788654;79;21216;-66
2021/04/16 08:30:29;;;;;;;6.17;4.47;;;;;;;13.84;100.00;100425.28;1790910;79;21574;-69
2021/04/16 08:33:09;;;;;;;5.43;4.43;;;;;;;13.90;100.00;100429.70;1789947;79;21108;-66
2021/04/16 08:35:43;;;;;;;6.33;4.00;;;;;;;13.86;100.00;100434.56;1737054;82;21204;-66
2021/04/16 08:38:16;;;;;;;5.83;4.30;;;;;;;13.76;100.00;100428.90;1792906;79;21563;-67
2021/04/16 08:40:49;;;;;;;6.50;4.03;;;;;;;13.64;100.00;100431.80;1801859;79;21021;-67
2021/04/16 08:43:40;;;;;;;5.30;3.77;;;;;;;13.64;100.00;100427.88;1803988;79;21026;-66
2021/04/16 08:46:26;;;;;;;6.00;3.60;;;;;;;13.78;100.00;100422.94;1793396;79;21047;-66
2021/04/16 08:49:00;;;;;;;5.10;3.43;;;;;;;13.93;100.00;100418.02;1807244;79;22143;-67
2021/04/16 08:51:32;;;;;;;5.33;3.93;;;;;;;14.13;100.00;100421.47;1734055;82;21176;-68
2021/04/16 08:54:19;;;;;;;4.80;3.70;;;;;;;14.21;100.00;100420.46;1728350;82;21188;-67
2021/04/16 08:57:12;;;;;;;5.40;4.00;;;;;;;14.25;100.00;100419.05;1694671;82;21172;-68
2021/04/16 09:00:10;;;;;;;4.83;3.87;;;;;;;14.21;94.26;100419.16;1748026;80;21219;-66
2021/04/16 09:02:49;;;;;;;4.93;3.20;;;;;;;14.49;99.74;100411.03;1765089;79;22191;-67
2021/04/16 09:05:23;;;;;;;5.27;4.03;;;;;;;15.06;90.32;100406.86;1795948;79;21160;-68
2021/04/16 09:08:10;;;;;;;5.77;3.77;;;;;;;15.36;80.02;100410.25;1781295;79;21225;-70
2021/04/16 09:10:46;;;;;;;4.60;3.80;;;;;;;15.51;79.70;100403.70;1790566;79;20971;-66
2021/04/16 09:13:42;;;;;;;5.73;4.53;;;;;;;15.62;77.46;100402.22;1793072;79;21128;-67
2021/04/16 09:16:22;;;;;;;5.67;4.40;;;;;;;15.71;75.26;100393.08;1788977;79;21060;-66
2021/04/16 09:18:54;;;;;;;5.00;3.97;;;;;;;15.85;70.51;100396.42;1795433;79;21049;-68
2021/04/16 09:21:31;;;;;;;4.77;3.70;;;;;;;15.86;68.72;100392.77;1787178;79;21034;-69
2021/04/16 09:24:07;;;;;;;5.23;4.03;;;;;;;15.80;67.28;100397.06;1789214;79;20946;-67
2021/04/16 09:26:50;;;;;;;4.80;3.43;;;;;;;15.68;67.21;100393.52;1775016;79;21148;-68
2021/04/16 09:29:35;;;;;;;6.43;4.03;;;;;;;15.48;68.72;100395.42;1791387;78;21217;-66
2021/04/16 09:32:06;;;;;;;6.60;4.00;;;;;;;15.29;72.22;100394.52;1797329;79;21223;-67
2021/04/16 09:34:50;;;;;;;3.50;3.07;;;;;;;15.23;76.46;100393.56;1793039;79;21193;-72
2021/04/16 09:37:41;;;;;;;3.73;2.67;;;;;;;15.32;72.64;100389.66;1791948;79;22007;-67
2021/04/16 09:43:18;;;;;;;4.27;3.17;;;;;;;16.20;60.77;100382.77;1818398;76;22770;-67
2021/04/16 09:45:51;;;;;;;4.70;3.63;;;;;;;16.34;59.32;100388.20;1788605;79;21057;-70
2021/04/16 09:48:28;;;;;;;5.33;2.83;;;;;;;16.47;60.72;100391.20;1779957;78;21370;-68
2021/04/16 09:51:03;;;;;;;3.90;2.80;;;;;;;16.58;55.86;100393.11;1768370;79;21037;-70
2021/04/16 09:53:35;;;;;;;4.07;2.90;;;;;;;16.47;53.55;100396.47;1793966;79;21456;-70
2021/04/16 09:56:17;;;;;;;4.07;2.10;;;;;;;16.39;55.12;100389.66;1797679;78;20996;-68
2021/04/16 09:58:58;;;;;;;3.47;2.70;;;;;;;16.41;52.91;100389.47;1790668;77;21602;-68
2021/04/16 10:01:27;;;;;;;;;;;;;;;16.34;53.37;100391.35;1791069;79;22081;-68
2021/04/16 10:04:08;;;;;;;2.83;1.60;;;;;;;16.32;53.67;100389.44;1785460;79;20154;-69
2021/04/16 10:06:42;;;;;;;4.47;2.30;;;;;;;16.44;49.70;100392.95;1728448;81;21017;-71
2021/04/16 10:09:25;;;;;;;3.63;2.40;;;;;;;16.58;48.49;100385.22;1735451;81;21044;-67
2021/04/16 10:12:01;;;;;;;4.23;2.50;;;;;;;16.65;48.00;100388.59;1690837;82;21109;-69
2021/04/16 10:14:37;;;;;;;5.40;2.63;;;;;;;16.59;49.66;100381.56;1727013;82;22115;-69
2021/04/16 10:17:23;;;;;;;4.53;2.90;;;;;;;16.70;49.44;100386.09;1727196;82;21678;-68
2021/04/16 10:20:08;;;;;;;3.33;2.30;;;;;;;16.87;49.84;100385.03;1728872;82;21137;-67
2021/04/16 10:22:38;;;;;;;3.77;2.50;;;;;;;17.16;49.44;100387.89;1733107;82;21239;-67
2021/04/16 12:39:04;;;;;;;2.63;1.40;;;;;;;15.54;55.83;100380.95;1724577;82;21612;-67
2021/04/16 12:41:37;;;;;;;3.00;1.80;;;;;;;15.68;51.23;100379.55;1740870;80;21555;-67
2021/04/16 12:44:06;;;;;;;3.07;1.60;;;;;;;15.73;48.86;100381.05;1727768;80;21222;-68
2021/04/16 12:46:36;;;;;;;3.80;2.47;;;;;;;15.71;48.94;100375.98;1763104;80;21233;-68
2021/04/16 12:49:06;;;;;;;;;;;;;;;15.66;48.46;100375.84;1755090;80;21611;-68
2021/04/16 12:51:34;;;;;;;4.73;2.30;;;;;;;15.57;48.81;100381.03;1740298;81;20305;-68
2021/04/16 12:54:03;;;;;;;4.70;1.80;;;;;;;15.47;49.65;100378.86;1753670;81;21567;-68
2021/04/16 12:56:40;;;;;;;3.27;1.80;;;;;;;15.32;50.68;100376.53;1752954;81;20970;-68
2021/04/16 12:59:18;;;;;;;3.40;1.70;;;;;;;15.16;50.85;100388.84;1752825;81;21217;-68
2021/04/16 13:01:48;;;;;;;8.47;2.17;;;;;;;15.00;52.22;100387.51;1754630;81;21468;-67
2021/04/16 13:04:18;;;;;;;3.67;1.92;;;;;;;14.87;53.62;100382.81;1755718;81;21256;-67
2021/04/16 13:06:47;;;;;;;3.53;1.60;;;;;;;14.75;54.91;100386.59;1719127;81;21518;-65
2021/04/16 13:09:18;;;;;;;3.97;1.77;;;;;;;14.64;55.08;100385.41;1756897;81;21212;-67
2021/04/16 13:11:49;;;;;;;3.80;1.60;;;;;;;14.56;56.63;100383.01;1743869;81;22129;-65
2021/04/16 13:14:18;;;;;;;4.77;2.30;;;;;;;14.53;57.23;100387.34;1749767;81;21128;-66
2021/04/16 13:16:46;;;;;;;4.77;2.33;;;;;;;14.52;57.34;100384.44;1730068;81;21592;-66
2021/04/16 13:19:28;;;;;;;5.50;3.53;;;;;;;14.52;57.75;100381.30;1744775;80;21601;-67
2021/04/16 13:22:01;;;;;;;415.00;312.80;;;;;;;14.52;58.29;100378.68;1779133;79;22185;-67
2021/04/16 13:24:30;;;;;;;60.90;43.03;;;;;;;14.56;58.41;100376.45;1770313;79;21203;-68
2021/04/16 13:27:00;;;;;;;25.53;20.20;;;;;;;14.59;57.89;100381.29;1781839;79;21548;-66
2021/04/16 13:29:28;;;;;;;60.00;50.60;;;;;;;14.65;58.72;100377.02;1796891;79;21168;-68
2021/04/16 13:31:57;;;;;;;69.37;61.77;;;;;;;14.77;58.96;100371.42;1791714;79;21101;-66
2021/04/16 13:34:26;;;;;;;24.23;21.60;;;;;;;14.94;59.42;100377.83;1785035;79;21712;-66
2021/04/16 13:36:55;;;;;;;8.40;7.60;;;;;;;15.12;57.39;100381.09;1799585;79;22314;-66
2021/04/16 13:39:24;;;;;;;4.50;3.30;;;;;;;15.26;54.59;100376.05;1793519;79;21120;-68
2021/04/16 13:41:53;;;;;;;11.93;10.77;;;;;;;15.35;53.91;100371.88;1789849;79;21197;-68
2021/04/16 13:44:22;;;;;;;3.53;2.70;;;;;;;15.43;54.73;100379.50;1799024;79;20990;-67
2021/04/16 13:46:52;;;;;;;6.07;2.60;;;;;;;15.51;54.15;100376.62;1795778;79;21555;-64
2021/04/16 13:49:24;;;;;;;5.10;3.17;;;;;;;15.55;54.02;100377.80;1802272;79;21194;-66
2021/04/16 13:51:52;;;;;;;7.45;3.40;;;;;;;15.59;53.00;100375.05;1795529;79;21958;-69
2021/04/16 13:54:21;;;;;;;4.87;2.30;;;;;;;15.62;53.31;100375.94;1703188;82;21153;-65
2021/04/16 13:56:52;;;;;;;3.67;2.70;;;;;;;15.58;51.12;100373.44;1793372;79;21570;-67
2021/04/16 13:59:21;;;;;;;5.17;3.20;;;;;;;15.49;50.29;100374.70;1775967;79;21554;-68
2021/04/16 14:01:49;;;;;;;4.77;2.90;;;;;;;15.39;50.87;100374.38;1717897;82;21304;-65
2021/04/16 14:04:31;;;;;;;4.80;3.20;;;;;;;15.31;50.88;100374.12;1807860;79;21172;-65
2021/04/16 14:06:59;;;;;;;4.25;2.52;;;;;;;15.26;51.32;100368.16;1769433;79;21553;-66
2021/04/16 14:09:28;;;;;;;10.60;6.33;;;;;;;15.26;50.17;100367.37;1793985;79;21148;-65
2021/04/16 14:11:57;;;;;;;33.57;30.20;;;;;;;15.24;49.60;100361.02;1775169;79;21161;-65
2021/04/16 14:14:29;;;;;;;121.50;110.50;;;;;;;15.23;49.34;100356.80;1792327;79;21430;-66
2021/04/16 14:17:12;;;;;;;14.73;13.22;;;;;;;15.23;47.98;100356.80;1789363;78;21581;-66
2021/04/16 14:22:42;;;;;;;45.37;40.97;;;;;;;15.17;47.79;100352.37;1815152;78;22179;-65
2021/04/16 14:25:17;;;;;;;82.67;74.30;;;;;;;15.10;48.17;100351.59;1791760;77;21062;-65
2021/04/16 14:27:45;;;;;;;242.50;223.10;;;;;;;15.05;48.14;100355.37;1706012;82;21370;-67
2021/04/16 14:30:36;;;;;;;33.30;30.33;;;;;;;14.98;48.28;100349.34;1722303;82;21051;-69
2021/04/16 14:33:10;;;;;;;35.52;32.85;;;;;;;14.90;48.80;100357.47;1731031;81;21562;-65
2021/04/16 14:35:38;;;;;;;8.13;7.33;;;;;;;14.78;50.00;100358.11;1725005;81;21030;-63
2021/04/16 14:38:08;;;;;;;6.80;3.70;;;;;;;14.69;49.93;100350.16;1742148;81;21609;-65
2021/04/16 14:40:37;;;;;;;5.90;4.40;;;;;;;14.63;50.92;100355.45;1729727;79;21390;-66
2021/04/16 14:43:09;;;;;;;7.47;5.10;;;;;;;14.61;51.63;100350.39;1739133;81;21367;-66
2021/04/16 14:45:43;;;;;;;5.30;3.63;;;;;;;14.60;52.14;100348.28;1729459;81;21003;-65
2021/04/16 14:48:13;;;;;;;10.60;5.53;;;;;;;14.58;52.84;100346.39;1728101;81;21408;-65
2021/04/16 14:50:41;;;;;;;12.70;8.27;;;;;;;14.58;53.58;100341.63;1725767;81;21657;-66
2021/04/16 14:53:20;;;;;;;19.77;14.77;;;;;;;14.54;52.41;100346.47;1730835;81;21258;-66
2021/04/16 14:55:49;;;;;;;24.23;15.93;;;;;;;14.48;51.86;100343.86;1731825;81;21007;-65
2021/04/16 14:58:32;;;;;;;19.93;13.00;;;;;;;14.41;52.65;100347.00;1733915;81;21227;-66
2021/04/16 15:01:01;;;;;;;47.27;26.23;;;;;;;14.35;53.94;100348.10;1721396;81;21516;-65
2021/04/16 15:03:32;;;;;;;17.07;8.43;;;;;;;14.32;52.80;100347.23;1735000;81;21127;-67
2021/04/16 15:06:02;;;;;;;;;;;;;;;14.28;52.66;100341.27;1734517;81;22410;-64
2021/04/16 15:08:40;;;;;;;8.70;5.47;;;;;;;14.22;52.55;100349.97;1732046;81;20881;-64
2021/04/16 15:11:10;;;;;;;34.40;30.80;;;;;;;14.15;53.20;100340.80;1725372;81;21641;-68
2021/04/16 15:13:39;;;;;;;17.90;11.03;;;;;;;14.09;53.85;100344.22;1733473;81;28359;-64
2021/04/16 15:16:18;;;;;;;9.93;6.53;;;;;;;14.05;54.74;100339.09;1727485;81;21550;-65
2021/04/16 15:18:47;;;;;;;6.07;3.20;;;;;;;14.02;55.19;100346.06;1730755;81;21437;-65
2021/04/16 15:21:19;;;;;;;4.90;2.90;;;;;;;13.97;54.32;100338.79;1729943;81;21010;-64
2021/04/16 15:23:49;;;;;;;7.00;3.73;;;;;;;13.92;54.77;100339.11;1731488;81;21237;-65
2021/04/16 15:26:22;;;;;;;9.33;4.80;;;;;;;13.84;55.72;100343.55;1728286;81;21458;-65
2021/04/16 15:28:58;;;;;;;223.77;187.33;;;;;;;13.70;55.63;100351.09;1705542;82;21615;-64
2021/04/16 15:31:31;;;;;;;129.03;107.90;;;;;;;13.70;55.63;100351.09;1736998;81;22269;-65
2021/04/16 15:46:00;;;;;;;11.20;5.37;;;;;;;13.28;60.61;100350.44;1743848;80;21446;-69
2021/04/16 15:48:28;;;;;;;10.53;4.87;;;;;;;13.18;63.23;100351.28;1744942;80;21573;-68
2021/04/16 15:51:01;;;;;;;8.60;3.60;;;;;;;13.09;64.91;100353.28;1737900;80;21205;-66
2021/04/16 15:53:30;;;;;;;11.43;5.80;;;;;;;12.92;69.88;100370.34;1746640;80;21913;-69
2021/04/16 15:56:00;;;;;;;81.63;38.63;;;;;;;12.82;90.67;100378.54;1733021;80;21166;-69
2021/04/16 15:58:31;;;;;;;26.33;13.63;;;;;;;12.82;90.67;100378.54;1748834;80;21396;-70
2021/04/16 16:01:01;;;;;;;19.02;12.10;;;;;;;12.56;100.00;100375.80;1748260;80;21815;-69
2021/04/16 16:03:30;;;;;;;13.45;7.12;;;;;;;12.27;100.00;100385.95;1753112;80;21568;-69
2021/04/16 16:06:00;;;;;;;25.47;14.07;;;;;;;11.62;100.00;100381.28;1750952;80;20980;-72
2021/04/16 16:08:29;;;;;;;21.43;12.60;;;;;;;11.62;100.00;100381.28;1735228;80;22001;-71
2021/04/16 16:10:58;;;;;;;20.87;14.23;;;;;;;11.33;100.00;100386.94;1746823;80;22164;-72
2021/04/16 16:13:37;;;;;;;14.30;9.13;;;;;;;11.07;100.00;100394.46;1729789;81;21864;-68
2021/04/16 16:16:09;;;;;;;15.53;11.07;;;;;;;10.67;100.00;100415.60;1727102;81;21523;-69
2021/04/16 16:18:41;;;;;;;99.87;73.73;;;;;;;10.67;100.00;100415.60;1747986;81;21841;-68
2021/04/16 16:21:14;;;;;;;43.77;33.27;;;;;;;10.47;100.00;100436.18;1747695;80;21578;-67
2021/04/16 16:23:44;;;;;;;14.75;10.13;;;;;;;10.29;100.00;100447.91;1741255;80;21158;-68
2021/04/16 16:26:23;;;;;;;9.83;6.57;;;;;;;10.13;100.00;100451.44;1758343;80;20975;-69
2021/04/16 16:28:56;;;;;;;6.27;4.10;;;;;;;9.94;100.00;100448.81;1733639;81;21376;-68
2021/04/16 16:31:24;;;;;;;5.63;4.00;;;;;;;9.70;100.00;100453.70;1742477;80;21247;-68
2021/04/16 16:33:53;;;;;;;5.60;3.50;;;;;;;9.43;100.00;100444.09;1746605;79;21086;-65
2021/04/16 16:36:21;;;;;;;7.90;3.90;;;;;;;9.22;100.00;100452.97;1751589;80;22854;-66
2021/04/16 16:38:49;;;;;;;10.60;4.40;;;;;;;9.04;100.00;100453.69;1752557;80;21232;-66
2021/04/16 16:41:18;;;;;;;13.07;5.00;;;;;;;8.89;100.00;100449.66;1760268;80;21190;-68
2021/04/16 16:43:52;;;;;;;11.90;3.93;;;;;;;8.80;100.00;100456.69;1760332;80;21308;-65
2021/04/16 16:46:25;;;;;;;5.50;3.23;;;;;;;8.73;100.00;100459.62;1759346;80;21765;-71
2021/04/16 16:48:53;;;;;;;5.13;2.63;;;;;;;8.66;100.00;100459.95;1761205;80;21204;-70
2021/04/16 16:51:25;;;;;;;5.63;3.20;;;;;;;8.60;100.00;100456.70;1760086;80;21793;-69
2021/04/16 16:53:53;;;;;;;4.17;2.90;;;;;;;8.56;100.00;100467.11;1758533;80;21578;-68
2021/04/16 16:56:24;;;;;;;4.60;3.17;;;;;;;8.47;100.00;100474.91;1755778;80;21291;-67
2021/04/16 16:58:53;;;;;;;3.40;2.50;;;;;;;8.45;100.00;100475.59;1760310;80;21366;-67
2021/04/16 17:01:25;;;;;;;4.75;3.52;;;;;;;8.43;100.00;100468.43;1757679;80;21194;-69
2021/04/16 17:03:54;;;;;;;5.53;3.52;;;;;;;8.42;100.00;100469.41;1746163;80;21080;-69
2021/04/16 17:06:24;;;;;;;5.67;3.90;;;;;;;8.39;100.00;100467.13;1741474;80;21162;-67
2021/04/16 17:08:53;;;;;;;5.67;3.90;;;;;;;8.38;100.00;100468.61;1757130;80;21051;-67
2021/04/16 17:11:25;;;;;;;5.85;3.70;;;;;;;8.36;100.00;100472.62;1759771;80;21291;-64
2021/04/16 17:14:04;;;;;;;3.90;2.70;;;;;;;8.34;100.00;100473.28;1711521;80;21267;-68
2021/04/16 17:16:33;;;;;;;4.55;3.35;;;;;;;8.29;100.00;100467.75;1737625;81;21494;-66
2021/04/16 17:19:01;;;;;;;5.25;3.52;;;;;;;8.20;100.00;100472.14;1740425;80;21625;-67